sensor_id;sensor_type;location;lat;lon;timestamp;pressure;altitude;pressure_sealevel;temperature;humidity
42603;BME280;28233;55.748;48.752;2022-11-04T00:01:50;98729.34;;;1.14;100.00
42603;BME280;28233;55.748;48.752;2022-11-04T00:03:53;98730.41;;;1.18;100.00
42603;BME280;28233;55.748;48.752;2022-11-04T00:05:59;98735.81;;;1.18;100.00
42603;BME280;28233;55.748;48.752;2022-11-04T00:08:02;98737.19;;;1.16;100.00
42603;BME280;28233;55.748;48.752;2022-11-04T00:10:23;98731.78;;;1.16;100.00
42603;BME280;28233;55.748;48.752;2022-11-04T00:12:46;98725.81;;;1.14;100.00
42603;BME280;28233;55.748;48.752;2022-11-04T00:14:48;98736.88;;;1.17;100.00
42603;BME280;28233;55.748;48.752;2022-11-04T00:16:51;98729.31;;;1.19;100.00
42603;BME280;28233;55.748;48.752;2022-11-04T00:19:12;98735.28;;;1.16;100.00
42603;BME280;28233;55.748;48.752;2022-11-04T00:21:15;98737.72;;;1.18;100.00
42603;BME280;28233;55.748;48.752;2022-11-04T00:23:36;98734.47;;;1.16;100.00
42603;BME280;28233;55.748;48.752;2022-11-04T00:25:58;98742.03;;;1.19;100.00
42603;BME280;28233;55.748;48.752;2022-11-04T00:28:19;98742.00;;;1.24;100.00
42603;BME280;28233;55.748;48.752;2022-11-04T00:30:40;98738.47;;;1.23;100.00
42603;BME280;28233;55.748;48.752;2022-11-04T00:32:43;98735.50;;;1.25;100.00
42603;BME280;28233;55.748;48.752;2022-11-04T00:35:04;98737.13;;;1.26;100.00
42603;BME280;28233;55.748;48.752;2022-11-04T00:37:07;98748.75;;;1.26;100.00
42603;BME280;28233;55.748;48.752;2022-11-04T00:39:10;98744.16;;;1.22;100.00
42603;BME280;28233;55.748;48.752;2022-11-04T00:41:12;98750.41;;;1.22;100.00
42603;BME280;28233;55.748;48.752;2022-11-04T00:43:28;98745.81;;;1.23;100.00
42603;BME280;28233;55.748;48.752;2022-11-04T00:45:30;98742.03;;;1.19;100.00
42603;BME280;28233;55.748;48.752;2022-11-04T00:47:33;98743.63;;;1.20;100.00
42603;BME280;28233;55.748;48.752;2022-11-04T00:49:36;98749.03;;;1.20;100.00
42603;BME280;28233;55.748;48.752;2022-11-04T00:51:38;98743.38;;;1.21;100.00
42603;BME280;28233;55.748;48.752;2022-11-04T00:53:41;98746.34;;;1.20;100.00
42603;BME280;28233;55.748;48.752;2022-11-04T00:55:44;98756.91;;;1.21;100.00
42603;BME280;28233;55.748;48.752;2022-11-04T00:57:46;98757.97;;;1.25;100.00
42603;BME280;28233;55.748;48.752;2022-11-04T00:59:49;98749.84;;;1.25;100.00
42603;BME280;28233;55.748;48.752;2022-11-04T01:01:52;98752.00;;;1.23;100.00
42603;BME280;28233;55.748;48.752;2022-11-04T01:03:55;98759.56;;;1.26;100.00
42603;BME280;28233;55.748;48.752;2022-11-04T01:05:58;98756.63;;;1.23;100.00
42603;BME280;28233;55.748;48.752;2022-11-04T01:08:00;98756.34;;;1.19;100.00
42603;BME280;28233;55.748;48.752;2022-11-04T01:10:04;98756.91;;;1.21;100.00
42603;BME280;28233;55.748;48.752;2022-11-04T01:12:07;98759.88;;;1.20;100.00
42603;BME280;28233;55.748;48.752;2022-11-04T01:14:09;98754.50;;;1.15;100.00
42603;BME280;28233;55.748;48.752;2022-11-04T01:16:12;98763.97;;;1.12;100.00
42603;BME280;28233;55.748;48.752;2022-11-04T01:18:14;98755.03;;;1.17;100.00
42603;BME280;28233;55.748;48.752;2022-11-04T01:20:17;98765.53;;;1.23;100.00
42603;BME280;28233;55.748;48.752;2022-11-04T01:22:20;98760.13;;;1.23;100.00
42603;BME280;28233;55.748;48.752;2022-11-04T01:24:22;98755.81;;;1.17;100.00
42603;BME280;28233;55.748;48.752;2022-11-04T01:26:26;98760.66;;;1.25;100.00
42603;BME280;28233;55.748;48.752;2022-11-04T01:28:29;98768.00;;;1.20;100.00
42603;BME280;28233;55.748;48.752;2022-11-04T01:30:32;98762.31;;;1.21;100.00
42603;BME280;28233;55.748;48.752;2022-11-04T01:32:35;98764.75;;;1.23;100.00
42603;BME280;28233;55.748;48.752;2022-11-04T01:34:37;98758.25;;;1.19;100.00
42603;BME280;28233;55.748;48.752;2022-11-04T01:36:44;98765.31;;;1.15;100.00
42603;BME280;28233;55.748;48.752;2022-11-04T01:38:47;98768.28;;;1.18;100.00
42603;BME280;28233;55.748;48.752;2022-11-04T01:40:50;98767.47;;;1.13;100.00
42603;BME280;28233;55.748;48.752;2022-11-04T01:42:53;98764.28;;;1.11;100.00
42603;BME280;28233;55.748;48.752;2022-11-04T01:44:59;98767.25;;;1.09;100.00
42603;BME280;28233;55.748;48.752;2022-11-04T01:47:02;98769.16;;;1.09;100.00
42603;BME280;28233;55.748;48.752;2022-11-04T01:49:29;98769.94;;;1.09;100.00
42603;BME280;28233;55.748;48.752;2022-11-04T01:51:34;98770.47;;;1.11;100.00
42603;BME280;28233;55.748;48.752;2022-11-04T01:53:39;98771.56;;;1.10;100.00
42603;BME280;28233;55.748;48.752;2022-11-04T01:55:50;98763.97;;;1.12;100.00
42603;BME280;28233;55.748;48.752;2022-11-04T01:57:57;98776.44;;;1.13;100.00
42603;BME280;28233;55.748;48.752;2022-11-04T02:00:04;98770.72;;;1.15;100.00
42603;BME280;28233;55.748;48.752;2022-11-04T02:02:07;98778.84;;;1.15;100.00
42603;BME280;28233;55.748;48.752;2022-11-04T02:04:11;98775.06;;;1.16;100.00
42603;BME280;28233;55.748;48.752;2022-11-04T02:06:26;98778.84;;;1.15;100.00
42603;BME280;28233;55.748;48.752;2022-11-04T02:08:29;98766.97;;;1.11;100.00
42603;BME280;28233;55.748;48.752;2022-11-04T02:10:32;98776.94;;;1.15;100.00
42603;BME280;28233;55.748;48.752;2022-11-04T02:12:35;98786.13;;;1.19;100.00
42603;BME280;28233;55.748;48.752;2022-11-04T02:14:53;98779.63;;;1.15;100.00
42603;BME280;28233;55.748;48.752;2022-11-04T02:17:06;98778.81;;;1.20;100.00
42603;BME280;28233;55.748;48.752;2022-11-04T02:33:25;98787.78;;;1.10;100.00
42603;BME280;28233;55.748;48.752;2022-11-04T02:35:38;98791.31;;;1.11;100.00
42603;BME280;28233;55.748;48.752;2022-11-04T02:42:31;98801.63;;;1.09;100.00
42603;BME280;28233;55.748;48.752;2022-11-04T02:44:45;98793.50;;;1.09;100.00
42603;BME280;28233;55.748;48.752;2022-11-04T02:46:58;98796.75;;;1.11;100.00
42603;BME280;28233;55.748;48.752;2022-11-04T02:49:08;98792.66;;;1.13;100.00
42603;BME280;28233;55.748;48.752;2022-11-04T02:51:17;98796.19;;;1.14;100.00
42603;BME280;28233;55.748;48.752;2022-11-04T02:55:54;98794.56;;;1.08;100.00
42603;BME280;28233;55.748;48.752;2022-11-04T02:58:01;98797.00;;;1.09;100.00
42603;BME280;28233;55.748;48.752;2022-11-04T03:00:08;98790.78;;;1.09;100.00
42603;BME280;28233;55.748;48.752;2022-11-04T03:02:17;98803.47;;;1.08;100.00
42603;BME280;28233;55.748;48.752;2022-11-04T03:04:26;98797.56;;;1.06;100.00
42603;BME280;28233;55.748;48.752;2022-11-04T03:06:32;98798.91;;;1.03;100.00
42603;BME280;28233;55.748;48.752;2022-11-04T03:08:40;98800.03;;;0.97;100.00
42603;BME280;28233;55.748;48.752;2022-11-04T03:10:52;98800.81;;;0.98;100.00
42603;BME280;28233;55.748;48.752;2022-11-04T03:13:01;98807.59;;;1.00;100.00
42603;BME280;28233;55.748;48.752;2022-11-04T03:15:11;98806.22;;;1.03;100.00
42603;BME280;28233;55.748;48.752;2022-11-04T03:17:41;98811.91;;;1.01;100.00
42603;BME280;28233;55.748;48.752;2022-11-04T03:19:58;98809.22;;;1.01;100.00
42603;BME280;28233;55.748;48.752;2022-11-04T03:22:09;98804.63;;;0.97;100.00
42603;BME280;28233;55.748;48.752;2022-11-04T03:24:13;98813.25;;;1.04;100.00
42603;BME280;28233;55.748;48.752;2022-11-04T03:26:32;98819.75;;;1.03;100.00
42603;BME280;28233;55.748;48.752;2022-11-04T03:30:46;98818.69;;;0.99;100.00
42603;BME280;28233;55.748;48.752;2022-11-04T03:33:03;98821.91;;;1.01;100.00
42603;BME280;28233;55.748;48.752;2022-11-04T03:35:11;98819.22;;;0.96;100.00
42603;BME280;28233;55.748;48.752;2022-11-04T03:37:15;98828.16;;;0.96;100.00
42603;BME280;28233;55.748;48.752;2022-11-04T03:39:18;98823.84;;;0.95;100.00
42603;BME280;28233;55.748;48.752;2022-11-04T03:41:31;98824.09;;;0.94;100.00
42603;BME280;28233;55.748;48.752;2022-11-04T03:43:36;98821.41;;;0.94;100.00
42603;BME280;28233;55.748;48.752;2022-11-04T03:45:41;98819.50;;;0.99;100.00
42603;BME280;28233;55.748;48.752;2022-11-04T03:47:44;98824.63;;;1.01;100.00
42603;BME280;28233;55.748;48.752;2022-11-04T03:49:47;98826.28;;;0.97;100.00
42603;BME280;28233;55.748;48.752;2022-11-04T03:51:51;98828.97;;;1.02;100.00
42603;BME280;28233;55.748;48.752;2022-11-04T03:53:54;98827.06;;;1.02;100.00
42603;BME280;28233;55.748;48.752;2022-11-04T04:00:34;98834.91;;;1.04;100.00
42603;BME280;28233;55.748;48.752;2022-11-04T04:04:57;98834.63;;;1.00;100.00
42603;BME280;28233;55.748;48.752;2022-11-04T04:07:15;98832.47;;;1.02;100.00
42603;BME280;28233;55.748;48.752;2022-11-04T04:09:56;98841.38;;;1.03;100.00
42603;BME280;28233;55.748;48.752;2022-11-04T04:12:20;98840.84;;;1.06;100.00
42603;BME280;28233;55.748;48.752;2022-11-04T04:14:32;98838.69;;;1.03;100.00
42603;BME280;28233;55.748;48.752;2022-11-04T04:16:44;98844.91;;;1.09;100.00
42603;BME280;28233;55.748;48.752;2022-11-04T04:19:20;98838.13;;;1.11;100.00
42603;BME280;28233;55.748;48.752;2022-11-04T04:21:25;98833.25;;;1.08;100.00
42603;BME280;28233;55.748;48.752;2022-11-04T04:23:31;98839.47;;;1.14;100.00
42603;BME280;28233;55.748;48.752;2022-11-04T04:25:55;98841.88;;;1.15;100.00
42603;BME280;28233;55.748;48.752;2022-11-04T04:28:18;98837.81;;;1.13;100.00
42603;BME280;28233;55.748;48.752;2022-11-04T04:30:22;98841.38;;;1.13;100.00
42603;BME280;28233;55.748;48.752;2022-11-04T04:32:27;98840.81;;;1.11;100.00
42603;BME280;28233;55.748;48.752;2022-11-04T04:34:32;98846.75;;;1.18;100.00
42603;BME280;28233;55.748;48.752;2022-11-04T04:36:43;98845.94;;;1.18;100.00
42603;BME280;28233;55.748;48.752;2022-11-04T04:38:46;98851.63;;;1.16;100.00
42603;BME280;28233;55.748;48.752;2022-11-04T04:43:40;98852.72;;;1.10;100.00
42603;BME280;28233;55.748;48.752;2022-11-04T04:46:02;98854.63;;;1.10;100.00
42603;BME280;28233;55.748;48.752;2022-11-04T04:48:08;98849.47;;;1.13;100.00
42603;BME280;28233;55.748;48.752;2022-11-04T04:50:16;98862.47;;;1.11;100.00
42603;BME280;28233;55.748;48.752;2022-11-04T04:52:21;98860.28;;;1.08;100.00
42603;BME280;28233;55.748;48.752;2022-11-04T04:54:24;98856.00;;;1.07;100.00
42603;BME280;28233;55.748;48.752;2022-11-04T04:56:27;98866.25;;;1.10;100.00
42603;BME280;28233;55.748;48.752;2022-11-04T04:58:30;98859.78;;;1.06;100.00
42603;BME280;28233;55.748;48.752;2022-11-04T05:00:32;98867.63;;;1.08;100.00
42603;BME280;28233;55.748;48.752;2022-11-04T05:02:35;98862.19;;;1.08;100.00
42603;BME280;28233;55.748;48.752;2022-11-04T05:04:38;98859.50;;;1.08;100.00
42603;BME280;28233;55.748;48.752;2022-11-04T05:06:40;98868.72;;;1.07;100.00
42603;BME280;28233;55.748;48.752;2022-11-04T05:08:43;98856.53;;;1.04;100.00
42603;BME280;28233;55.748;48.752;2022-11-04T05:10:45;98867.38;;;1.04;100.00
42603;BME280;28233;55.748;48.752;2022-11-04T05:12:48;98866.81;;;1.07;100.00
42603;BME280;28233;55.748;48.752;2022-11-04T05:15:09;98865.72;;;1.08;100.00
42603;BME280;28233;55.748;48.752;2022-11-04T05:17:13;98865.72;;;1.08;100.00
42603;BME280;28233;55.748;48.752;2022-11-04T05:19:15;98865.72;;;1.08;100.00
42603;BME280;28233;55.748;48.752;2022-11-04T05:21:18;98868.69;;;1.12;100.00
42603;BME280;28233;55.748;48.752;2022-11-04T05:23:21;98870.03;;;1.14;100.00
42603;BME280;28233;55.748;48.752;2022-11-04T05:25:23;98869.22;;;1.14;100.00
42603;BME280;28233;55.748;48.752;2022-11-04T05:27:26;98872.50;;;1.11;100.00
42603;BME280;28233;55.748;48.752;2022-11-04T05:29:29;98860.56;;;1.12;100.00
42603;BME280;28233;55.748;48.752;2022-11-04T05:31:31;98881.13;;;1.18;100.00
42603;BME280;28233;55.748;48.752;2022-11-04T05:33:34;98872.72;;;1.19;100.00
42603;BME280;28233;55.748;48.752;2022-11-04T05:35:39;98887.34;;;1.18;100.00
42603;BME280;28233;55.748;48.752;2022-11-04T05:37:42;98881.94;;;1.18;100.00
42603;BME280;28233;55.748;48.752;2022-11-04T05:39:45;98880.53;;;1.26;100.00
42603;BME280;28233;55.748;48.752;2022-11-04T05:41:47;98890.03;;;1.23;100.00
42603;BME280;28233;55.748;48.752;2022-11-04T05:43:55;98882.44;;;1.25;100.00
42603;BME280;28233;55.748;48.752;2022-11-04T05:45:58;98883.25;;;1.26;100.00
42603;BME280;28233;55.748;48.752;2022-11-04T05:48:03;98890.31;;;1.27;100.00
42603;BME280;28233;55.748;48.752;2022-11-04T05:50:06;98890.00;;;1.29;100.00
42603;BME280;28233;55.748;48.752;2022-11-04T05:52:09;98891.66;;;1.30;100.00
42603;BME280;28233;55.748;48.752;2022-11-04T05:54:12;98897.06;;;1.30;100.00
42603;BME280;28233;55.748;48.752;2022-11-04T05:56:14;98899.75;;;1.35;100.00
42603;BME280;28233;55.748;48.752;2022-11-04T05:58:17;98896.22;;;1.34;100.00
42603;BME280;28233;55.748;48.752;2022-11-04T06:00:20;98899.72;;;1.40;100.00
42603;BME280;28233;55.748;48.752;2022-11-04T06:02:22;98899.44;;;1.46;100.00
42603;BME280;28233;55.748;48.752;2022-11-04T06:04:25;98903.47;;;1.49;100.00
42603;BME280;28233;55.748;48.752;2022-11-04T06:06:31;98900.50;;;1.45;100.00
42603;BME280;28233;55.748;48.752;2022-11-04T06:08:33;98902.66;;;1.48;100.00
42603;BME280;28233;55.748;48.752;2022-11-04T06:10:36;98904.53;;;1.48;100.00
42603;BME280;28233;55.748;48.752;2022-11-04T06:12:39;98903.75;;;1.42;100.00
42603;BME280;28233;55.748;48.752;2022-11-04T06:14:42;98906.22;;;1.44;100.00
42603;BME280;28233;55.748;48.752;2022-11-04T06:16:45;98908.34;;;1.47;100.00
42603;BME280;28233;55.748;48.752;2022-11-04T06:18:48;98903.19;;;1.45;100.00
42603;BME280;28233;55.748;48.752;2022-11-04T06:21:08;98908.91;;;1.44;100.00
42603;BME280;28233;55.748;48.752;2022-11-04T06:23:11;98909.16;;;1.47;100.00
42603;BME280;28233;55.748;48.752;2022-11-04T06:25:14;98907.78;;;1.50;100.00
42603;BME280;28233;55.748;48.752;2022-11-04T06:27:17;98922.66;;;1.53;100.00
42603;BME280;28233;55.748;48.752;2022-11-04T06:29:19;98914.00;;;1.56;100.00
42603;BME280;28233;55.748;48.752;2022-11-04T06:31:22;98911.59;;;1.49;100.00
42603;BME280;28233;55.748;48.752;2022-11-04T06:33:25;98916.75;;;1.51;100.00
42603;BME280;28233;55.748;48.752;2022-11-04T06:35:28;98914.88;;;1.46;100.00
42603;BME280;28233;55.748;48.752;2022-11-04T06:37:31;98914.88;;;1.46;100.00
42603;BME280;28233;55.748;48.752;2022-11-04T06:39:34;98914.88;;;1.46;100.00
42603;BME280;28233;55.748;48.752;2022-11-04T06:41:37;98919.19;;;1.47;100.00
42603;BME280;28233;55.748;48.752;2022-11-04T06:43:39;98918.63;;;1.50;100.00
42603;BME280;28233;55.748;48.752;2022-11-04T06:45:42;98922.41;;;1.54;100.00
42603;BME280;28233;55.748;48.752;2022-11-04T06:47:45;98925.63;;;1.56;100.00
42603;BME280;28233;55.748;48.752;2022-11-04T06:49:47;98929.19;;;1.52;100.00
42603;BME280;28233;55.748;48.752;2022-11-04T06:51:50;98920.53;;;1.50;100.00
42603;BME280;28233;55.748;48.752;2022-11-04T06:53:53;98925.94;;;1.50;100.00
42603;BME280;28233;55.748;48.752;2022-11-04T06:56:02;98916.75;;;1.51;100.00
42603;BME280;28233;55.748;48.752;2022-11-04T06:58:05;98931.63;;;1.48;100.00
42603;BME280;28233;55.748;48.752;2022-11-04T07:00:08;98931.63;;;1.48;100.00
42603;BME280;28233;55.748;48.752;2022-11-04T07:02:12;98929.44;;;1.50;100.00
42603;BME280;28233;55.748;48.752;2022-11-04T07:04:15;98928.66;;;1.44;100.00
42603;BME280;28233;55.748;48.752;2022-11-04T07:06:18;98930.56;;;1.44;100.00
42603;BME280;28233;55.748;48.752;2022-11-04T07:08:21;98934.31;;;1.48;100.00
42603;BME280;28233;55.748;48.752;2022-11-04T07:10:24;98928.38;;;1.51;100.00
42603;BME280;28233;55.748;48.752;2022-11-04T07:12:26;98934.84;;;1.55;100.00
42603;BME280;28233;55.748;48.752;2022-11-04T07:14:29;98931.59;;;1.58;100.00
42603;BME280;28233;55.748;48.752;2022-11-04T07:16:32;98939.72;;;1.58;100.00
42603;BME280;28233;55.748;48.752;2022-11-04T07:18:35;98932.66;;;1.62;100.00
42603;BME280;28233;55.748;48.752;2022-11-04T07:20:38;98944.00;;;1.64;100.00
42603;BME280;28233;55.748;48.752;2022-11-04T07:22:41;98935.63;;;1.66;100.00
42603;BME280;28233;55.748;48.752;2022-11-04T07:24:44;98936.41;;;1.66;100.00
42603;BME280;28233;55.748;48.752;2022-11-04T07:26:46;98941.03;;;1.66;100.00
42603;BME280;28233;55.748;48.752;2022-11-04T07:28:49;98942.38;;;1.68;100.00
42603;BME280;28233;55.748;48.752;2022-11-04T07:30:55;98937.00;;;1.63;100.00
42603;BME280;28233;55.748;48.752;2022-11-04T07:32:57;98942.66;;;1.67;100.00
42603;BME280;28233;55.748;48.752;2022-11-04T07:35:00;98938.59;;;1.64;100.00
42603;BME280;28233;55.748;48.752;2022-11-04T07:37:04;98944.28;;;1.68;100.00
42603;BME280;28233;55.748;48.752;2022-11-04T07:39:07;98947.00;;;1.63;100.00
42603;BME280;28233;55.748;48.752;2022-11-04T07:41:10;98940.22;;;1.65;100.00
42603;BME280;28233;55.748;48.752;2022-11-04T07:43:13;98942.94;;;1.65;100.00
42603;BME280;28233;55.748;48.752;2022-11-04T07:45:16;98941.06;;;1.61;100.00
42603;BME280;28233;55.748;48.752;2022-11-04T07:47:19;98945.91;;;1.64;100.00
42603;BME280;28233;55.748;48.752;2022-11-04T07:49:21;98944.84;;;1.65;100.00
42603;BME280;28233;55.748;48.752;2022-11-04T07:51:24;98944.00;;;1.69;100.00
42603;BME280;28233;55.748;48.752;2022-11-04T07:53:29;98942.88;;;1.76;100.00
42603;BME280;28233;55.748;48.752;2022-11-04T07:55:31;98945.63;;;1.71;100.00
42603;BME280;28233;55.748;48.752;2022-11-04T07:57:35;98944.78;;;1.75;100.00
42603;BME280;28233;55.748;48.752;2022-11-04T07:59:37;98948.88;;;1.73;100.00
42603;BME280;28233;55.748;48.752;2022-11-04T08:01:40;98940.19;;;1.76;100.00
42603;BME280;28233;55.748;48.752;2022-11-04T08:03:43;98944.53;;;1.77;100.00
42603;BME280;28233;55.748;48.752;2022-11-04T08:05:46;98948.28;;;1.81;100.00
42603;BME280;28233;55.748;48.752;2022-11-04T08:07:49;98954.25;;;1.78;100.00
42603;BME280;28233;55.748;48.752;2022-11-04T08:09:51;98948.00;;;1.82;100.00
42603;BME280;28233;55.748;48.752;2022-11-04T08:11:54;98945.28;;;1.82;100.00
42603;BME280;28233;55.748;48.752;2022-11-04T08:13:56;98942.84;;;1.81;100.00
42603;BME280;28233;55.748;48.752;2022-11-04T08:16:04;98943.94;;;1.85;100.00
42603;BME280;28233;55.748;48.752;2022-11-04T08:18:07;98952.88;;;1.80;100.00
42603;BME280;28233;55.748;48.752;2022-11-04T08:20:10;98943.41;;;1.83;100.00
42603;BME280;28233;55.748;48.752;2022-11-04T08:22:13;98949.31;;;1.90;100.00
42603;BME280;28233;55.748;48.752;2022-11-04T08:24:16;98948.22;;;1.96;100.00
42603;BME280;28233;55.748;48.752;2022-11-04T08:26:19;98951.75;;;1.92;100.00
42603;BME280;28233;55.748;48.752;2022-11-04T08:28:25;98944.72;;;1.85;100.00
42603;BME280;28233;55.748;48.752;2022-11-04T08:30:28;98932.63;;;1.73;100.00
42603;BME280;28233;55.748;48.752;2022-11-04T08:32:31;98940.66;;;1.88;100.00
42603;BME280;28233;55.748;48.752;2022-11-04T08:34:34;98946.91;;;1.88;100.00
42603;BME280;28233;55.748;48.752;2022-11-04T08:36:37;98947.41;;;1.96;100.00
42603;BME280;28233;55.748;48.752;2022-11-04T08:38:42;98945.53;;;1.91;100.00
42603;BME280;28233;55.748;48.752;2022-11-04T08:40:45;98946.59;;;1.90;100.00
42603;BME280;28233;55.748;48.752;2022-11-04T08:42:47;98951.75;;;1.92;100.00
42603;BME280;28233;55.748;48.752;2022-11-04T08:44:51;98954.69;;;1.95;100.00
42603;BME280;28233;55.748;48.752;2022-11-04T08:46:53;98945.00;;;1.89;100.00
42603;BME280;28233;55.748;48.752;2022-11-04T08:48:56;98943.56;;;2.02;100.00
42603;BME280;28233;55.748;48.752;2022-11-04T08:50:59;98956.56;;;2.05;100.00
42603;BME280;28233;55.748;48.752;2022-11-04T08:53:03;98953.88;;;2.05;100.00
42603;BME280;28233;55.748;48.752;2022-11-04T08:55:07;98947.91;;;2.03;100.00
42603;BME280;28233;55.748;48.752;2022-11-04T08:57:10;98964.97;;;2.03;100.00
42603;BME280;28233;55.748;48.752;2022-11-04T08:59:12;98954.16;;;1.98;100.00
42603;BME280;28233;55.748;48.752;2022-11-04T09:01:17;98958.78;;;1.93;100.00
42603;BME280;28233;55.748;48.752;2022-11-04T09:03:20;98950.94;;;1.96;100.00
42603;BME280;28233;55.748;48.752;2022-11-04T09:05:24;98964.19;;;1.93;100.00
42603;BME280;28233;55.748;48.752;2022-11-04T09:07:26;98963.97;;;1.89;100.00
42603;BME280;28233;55.748;48.752;2022-11-04T09:09:29;98958.25;;;1.96;100.00
42603;BME280;28233;55.748;48.752;2022-11-04T09:11:36;98969.06;;;2.01;100.00
42603;BME280;28233;55.748;48.752;2022-11-04T09:13:39;98963.38;;;1.97;100.00
42603;BME280;28233;55.748;48.752;2022-11-04T09:15:42;98962.84;;;2.00;100.00
42603;BME280;28233;55.748;48.752;2022-11-04T09:17:45;98968.53;;;1.99;100.00
42603;BME280;28233;55.748;48.752;2022-11-04T09:19:48;98957.94;;;1.97;100.00
42603;BME280;28233;55.748;48.752;2022-11-04T09:21:50;98962.53;;;2.02;100.00
42603;BME280;28233;55.748;48.752;2022-11-04T09:23:53;98961.47;;;2.03;100.00
42603;BME280;28233;55.748;48.752;2022-11-04T09:25:57;98969.84;;;2.01;100.00
42603;BME280;28233;55.748;48.752;2022-11-04T09:28:04;98958.47;;;1.99;100.00
42603;BME280;28233;55.748;48.752;2022-11-04T09:30:07;98965.81;;;1.99;100.00
42603;BME280;28233;55.748;48.752;2022-11-04T09:32:10;98967.16;;;2.01;100.00
42603;BME280;28233;55.748;48.752;2022-11-04T09:34:12;98968.78;;;1.97;100.00
42603;BME280;28233;55.748;48.752;2022-11-04T09:36:15;98971.78;;;1.96;100.00
42603;BME280;28233;55.748;48.752;2022-11-04T09:38:18;98961.75;;;1.96;100.00
42603;BME280;28233;55.748;48.752;2022-11-04T09:40:23;98970.44;;;1.93;100.00
42603;BME280;28233;55.748;48.752;2022-11-04T09:45:16;98972.59;;;1.96;100.00
42603;BME280;28233;55.748;48.752;2022-11-04T09:47:24;98974.78;;;1.94;100.00
42603;BME280;28233;55.748;48.752;2022-11-04T09:49:36;98974.78;;;1.94;100.00
42603;BME280;28233;55.748;48.752;2022-11-04T09:51:41;98976.94;;;1.92;100.00
42603;BME280;28233;55.748;48.752;2022-11-04T09:54:02;98980.19;;;1.94;100.00
42603;BME280;28233;55.748;48.752;2022-11-04T09:56:17;98979.66;;;1.92;100.00
42603;BME280;28233;55.748;48.752;2022-11-04T09:58:22;98978.59;;;1.93;100.00
42603;BME280;28233;55.748;48.752;2022-11-04T10:00:28;98978.84;;;1.92;100.00
42603;BME280;28233;55.748;48.752;2022-11-04T10:04:59;98978.78;;;2.02;100.00
42603;BME280;28233;55.748;48.752;2022-11-04T10:12:12;98978.00;;;1.96;100.00
42603;BME280;28233;55.748;48.752;2022-11-04T10:14:33;98985.59;;;1.94;100.00
42603;BME280;28233;55.748;48.752;2022-11-04T10:19:05;98983.16;;;1.98;100.00
42603;BME280;28233;55.748;48.752;2022-11-04T10:28:12;98986.41;;;1.95;100.00
42603;BME280;28233;55.748;48.752;2022-11-04T10:30:20;98986.97;;;1.92;100.00
42603;BME280;28233;55.748;48.752;2022-11-04T10:34:42;98987.22;;;1.95;100.00
42603;BME280;28233;55.748;48.752;2022-11-04T10:36:47;98992.09;;;1.98;100.00
42603;BME280;28233;55.748;48.752;2022-11-04T10:38:52;98976.13;;;1.92;100.00
42603;BME280;28233;55.748;48.752;2022-11-04T10:40:59;98985.88;;;1.98;100.00
42603;BME280;28233;55.748;48.752;2022-11-04T10:43:11;98973.13;;;1.98;100.00
42603;BME280;28233;55.748;48.752;2022-11-04T10:45:15;98977.44;;;1.99;100.00
42603;BME280;28233;55.748;48.752;2022-11-04T10:47:33;98984.22;;;2.02;100.00
42603;BME280;28233;55.748;48.752;2022-11-04T10:52:33;98994.22;;;2.06;100.00
42603;BME280;28233;55.748;48.752;2022-11-04T10:54:42;98985.28;;;2.06;100.00
42603;BME280;28233;55.748;48.752;2022-11-04T10:56:53;98986.16;;;1.96;100.00
42603;BME280;28233;55.748;48.752;2022-11-04T10:58:59;98988.28;;;1.99;100.00
42603;BME280;28233;55.748;48.752;2022-11-04T11:03:31;98992.09;;;1.98;100.00
42603;BME280;28233;55.748;48.752;2022-11-04T11:05:34;98991.53;;;2.01;100.00
42603;BME280;28233;55.748;48.752;2022-11-04T11:07:37;98997.50;;;2.03;100.00
42603;BME280;28233;55.748;48.752;2022-11-04T11:11:45;98997.72;;;2.12;100.00
42603;BME280;28233;55.748;48.752;2022-11-04T11:13:48;98990.97;;;2.09;100.00
42603;BME280;28233;55.748;48.752;2022-11-04T11:16:10;99000.16;;;2.08;100.00
42603;BME280;28233;55.748;48.752;2022-11-04T11:18:17;98999.09;;;2.04;100.00
42603;BME280;28233;55.748;48.752;2022-11-04T11:20:23;98998.25;;;2.09;100.00
42603;BME280;28233;55.748;48.752;2022-11-04T11:22:35;98998.00;;;2.10;100.00
42603;BME280;28233;55.748;48.752;2022-11-04T11:24:38;99004.50;;;2.15;100.00
42603;BME280;28233;55.748;48.752;2022-11-04T11:26:41;99000.41;;;2.17;100.00
42603;BME280;28233;55.748;48.752;2022-11-04T11:28:53;99005.03;;;2.17;100.00
42603;BME280;28233;55.748;48.752;2022-11-04T11:31:12;99005.03;;;2.17;100.00
42603;BME280;28233;55.748;48.752;2022-11-04T11:33:32;99002.59;;;2.15;100.00
42603;BME280;28233;55.748;48.752;2022-11-04T11:35:38;99007.47;;;2.13;100.00
42603;BME280;28233;55.748;48.752;2022-11-04T11:37:46;99008.56;;;2.12;100.00
42603;BME280;28233;55.748;48.752;2022-11-04T11:39:50;99008.00;;;2.15;100.00
42603;BME280;28233;55.748;48.752;2022-11-04T11:42:05;99008.28;;;2.14;100.00
42603;BME280;28233;55.748;48.752;2022-11-04T11:44:23;99011.53;;;2.10;100.00
42603;BME280;28233;55.748;48.752;2022-11-04T11:46:31;99010.97;;;2.14;100.00
42603;BME280;28233;55.748;48.752;2022-11-04T11:48:42;99008.53;;;2.17;100.00
42603;BME280;28233;55.748;48.752;2022-11-04T11:50:55;99011.75;;;2.24;100.00
42603;BME280;28233;55.748;48.752;2022-11-04T11:53:15;99023.13;;;2.26;100.00
42603;BME280;28233;55.748;48.752;2022-11-04T11:55:26;99013.09;;;2.27;100.00
42603;BME280;28233;55.748;48.752;2022-11-04T11:57:32;99013.66;;;2.19;100.00
42603;BME280;28233;55.748;48.752;2022-11-04T11:59:41;99004.50;;;2.15;100.00
42603;BME280;28233;55.748;48.752;2022-11-04T12:02:33;99009.38;;;2.13;100.00
42603;BME280;28233;55.748;48.752;2022-11-04T12:04:43;99014.00;;;2.12;100.00